createdAt,value
2023-04-15T00:00:04.480Z,95981.22
2023-04-15T00:02:16.518Z,95996.66
2023-04-15T00:04:19.395Z,95991.81
2023-04-15T00:06:22.436Z,96000.78
2023-04-15T00:08:26.758Z,95990.16
2023-04-15T00:10:29.703Z,95985.09
2023-04-15T00:12:32.518Z,95992.81
2023-04-15T00:14:35.847Z,95990.16
2023-04-15T00:16:38.630Z,95995.03
2023-04-15T00:18:41.412Z,95986.28
2023-04-15T00:20:44.332Z,95993.44
2023-04-15T00:22:47.328Z,95986.50
2023-04-15T00:24:51.597Z,95984.44
2023-04-15T00:26:54.536Z,95983.41
2023-04-15T00:28:57.337Z,95989.28
2023-04-15T00:31:00.179Z,95991.13
2023-04-15T00:33:03.630Z,95995.03
2023-04-15T00:35:07.277Z,95993.19
2023-04-15T00:37:10.666Z,95995.47
2023-04-15T00:39:13.429Z,95988.56
2023-04-15T00:41:17.864Z,95988.56
2023-04-15T00:43:20.718Z,95989.03
2023-04-15T00:45:24.065Z,95991.09
2023-04-15T00:47:28.589Z,95987.41
2023-04-15T00:49:32.195Z,95995.59
2023-04-15T00:51:36.799Z,95994.19
2023-04-15T00:53:39.632Z,96001.94
2023-04-15T00:55:42.483Z,95992.34
2023-04-15T00:57:46.675Z,95984.63
2023-04-15T00:59:49.886Z,95986.91
2023-04-15T01:01:53.536Z,95994.28
2023-04-15T01:03:59.118Z,95987.38
2023-04-15T01:06:03.973Z,95978.59
2023-04-15T01:08:08.525Z,95981.84
2023-04-15T01:10:11.713Z,95976.53
2023-04-15T01:12:16.468Z,95980.22
2023-04-15T01:14:20.865Z,95984.38
2023-04-15T01:16:23.808Z,95980.53
2023-04-15T01:18:27.236Z,95984.78
2023-04-15T01:20:30.602Z,95992.31
2023-04-15T01:22:35.421Z,95987.59
2023-04-15T01:24:38.500Z,95990.81
2023-04-15T01:26:44.574Z,95989.22
2023-04-15T01:28:47.519Z,95987.38
2023-04-15T01:30:50.315Z,95987.94
2023-04-15T01:32:53.161Z,95988.97
2023-04-15T01:34:55.952Z,95991.41
2023-04-15T01:36:58.916Z,95997.75
2023-04-15T01:39:02.063Z,95991.41
2023-04-15T01:41:07.499Z,95988.28
2023-04-15T01:43:11.645Z,95984.03
2023-04-15T01:45:14.613Z,95991.63
2023-04-15T01:47:17.614Z,95986.56
2023-04-15T01:49:20.409Z,95980.22
2023-04-15T01:51:23.283Z,95978.59
2023-04-15T01:53:26.690Z,95974.91
2023-04-15T01:55:29.465Z,95975.72
2023-04-15T01:57:32.294Z,95977.34
2023-04-15T01:59:37.050Z,95972.03
2023-04-15T02:01:39.811Z,95971.22
2023-04-15T02:03:42.851Z,95977.56
2023-04-15T02:05:45.727Z,95981.84
2023-04-15T02:07:49.346Z,95972.84
2023-04-15T02:09:52.232Z,95982.63
2023-04-15T02:11:55.105Z,95975.50
2023-04-15T02:13:57.863Z,95975.72
2023-04-15T02:16:02.091Z,95977.00
2023-04-15T02:18:05.551Z,95968.88
2023-04-15T02:20:10.580Z,95970.97
2023-04-15T02:22:18.317Z,95979.94
2023-04-15T02:24:21.161Z,95979.94
2023-04-15T02:26:25.250Z,95967.28
2023-04-15T02:28:28.340Z,95967.28
2023-04-15T02:30:31.246Z,95966.47
2023-04-15T02:32:35.551Z,95971.09
2023-04-15T02:34:41.156Z,95964.78
2023-04-15T02:36:43.953Z,95966.38
2023-04-15T02:38:46.695Z,95959.00
2023-04-15T02:40:50.441Z,95965.91
2023-04-15T02:42:53.192Z,95961.19
2023-04-15T02:44:56.244Z,95954.84
2023-04-15T02:46:59.338Z,95958.53
2023-04-15T02:49:03.800Z,95960.38
2023-04-15T02:51:13.723Z,95963.84
2023-04-15T02:53:17.452Z,95965.47
2023-04-15T02:55:20.281Z,95962.00
2023-04-15T02:57:23.010Z,95960.63
2023-04-15T02:59:25.890Z,95962.69
2023-04-15T03:01:28.717Z,95970.88
2023-04-15T03:03:31.831Z,95964.53
2023-04-15T03:05:36.011Z,95966.38
2023-04-15T03:07:40.267Z,95962.91
2023-04-15T03:09:43.027Z,95962.34
2023-04-15T03:11:45.803Z,95967.66
2023-04-15T03:13:48.608Z,95964.78
2023-04-15T03:15:51.370Z,95967.41
2023-04-15T03:17:54.355Z,95960.50
2023-04-15T03:19:57.130Z,95966.84
2023-04-15T03:22:01.288Z,95959.09
2023-04-15T03:24:04.293Z,95958.28
2023-04-15T03:26:07.177Z,95958.88
2023-04-15T03:28:09.931Z,95963.97
2023-04-15T03:30:13.644Z,95960.50
2023-04-15T03:32:16.645Z,95963.16
2023-04-15T03:34:19.407Z,95957.84
2023-04-15T03:36:22.368Z,95954.38
2023-04-15T03:38:27.024Z,95955.78
2023-04-15T03:40:29.857Z,95958.66
2023-04-15T03:42:32.606Z,95957.84
2023-04-15T03:44:35.378Z,95953.59
2023-04-15T03:46:38.310Z,95956.44
2023-04-15T03:48:42.159Z,95954.00
2023-04-15T03:50:44.960Z,95948.94
2023-04-15T03:52:48.632Z,95949.75
2023-04-15T03:54:53.768Z,95949.97
2023-04-15T03:56:56.731Z,95955.84
2023-04-15T03:58:59.646Z,95958.50
2023-04-15T04:01:02.590Z,95959.31
2023-04-15T04:03:05.545Z,95956.66
2023-04-15T04:05:09.210Z,95955.63
2023-04-15T04:07:18.230Z,95952.41
2023-04-15T04:09:20.983Z,95948.94
2023-04-15T04:11:25.239Z,95954.47
2023-04-15T04:13:28.203Z,95951.81
2023-04-15T04:15:31.217Z,95958.75
2023-04-15T04:17:34.093Z,95951.00
2023-04-15T04:19:36.992Z,95951.00
2023-04-15T04:21:39.848Z,95957.59
2023-04-15T04:23:42.664Z,95954.94
2023-04-15T04:25:45.507Z,95962.66
2023-04-15T04:27:49.719Z,95962.66
2023-04-15T04:29:52.440Z,95966.56
2023-04-15T04:31:55.250Z,95960.69
2023-04-15T04:33:58.013Z,95956.19
2023-04-15T04:36:00.884Z,95959.44
2023-04-15T04:38:04.039Z,95957.00
2023-04-15T04:40:08.354Z,95957.00
2023-04-15T04:42:11.174Z,95964.97
2023-04-15T04:44:15.376Z,95960.22
2023-04-15T04:46:18.263Z,95957.59
2023-04-15T04:48:21.237Z,95955.16
2023-04-15T04:50:24.106Z,95945.38
2023-04-15T04:52:26.893Z,95946.97
2023-04-15T04:54:31.120Z,95946.97
2023-04-15T04:56:34.692Z,95946.16
2023-04-15T04:58:38.131Z,95937.03
2023-04-15T05:00:42.812Z,95942.94
2023-04-15T05:02:45.978Z,95942.72
2023-04-15T05:04:50.093Z,95943.75
2023-04-15T05:06:52.847Z,95940.28
2023-04-15T05:08:56.790Z,95940.06
2023-04-15T05:10:59.647Z,95942.94
2023-04-15T05:13:02.883Z,95943.75
2023-04-15T05:15:07.061Z,95942.13
2023-04-15T05:17:11.497Z,95942.94
2023-04-15T05:19:14.256Z,95941.28
2023-04-15T05:21:17.548Z,95942.13
2023-04-15T05:23:20.629Z,95935.78
2023-04-15T05:25:23.533Z,95944.19
2023-04-15T05:27:26.644Z,95937.84
2023-04-15T05:29:29.383Z,95942.94
2023-04-15T05:31:32.209Z,95943.75
2023-04-15T05:33:37.791Z,95939.25
2023-04-15T05:35:40.651Z,95930.03
2023-04-15T05:37:44.795Z,95928.78
2023-04-15T05:39:48.336Z,95929.56
2023-04-15T05:41:51.180Z,95933.03
2023-04-15T05:43:53.930Z,95927.72
2023-04-15T05:45:56.914Z,95928.53
2023-04-15T05:47:59.866Z,95938.34
2023-04-15T05:50:04.493Z,95935.91
2023-04-15T05:52:07.359Z,95937.53
2023-04-15T05:54:10.092Z,95941.78
2023-04-15T05:56:12.951Z,95941.78
2023-04-15T05:58:15.827Z,95939.72
2023-04-15T06:00:18.920Z,95938.25
2023-04-15T06:02:22.135Z,95940.69
2023-04-15T06:04:25.085Z,95940.09
2023-04-15T06:06:29.215Z,95947.00
2023-04-15T06:08:32.145Z,95941.38
2023-04-15T06:10:36.706Z,95945.63
2023-04-15T06:12:39.772Z,95947.69
2023-04-15T06:14:42.534Z,95951.97
2023-04-15T06:16:45.327Z,95951.38
2023-04-15T06:18:48.053Z,95958.28
2023-04-15T06:20:50.891Z,95958.88
2023-04-15T06:22:55.178Z,95959.09
2023-04-15T06:24:57.992Z,95964.63
2023-04-15T06:27:02.121Z,95959.19
2023-04-15T06:29:05.162Z,95963.91
2023-04-15T06:31:08.156Z,95965.75
2023-04-15T06:33:10.993Z,95966.00
2023-04-15T06:35:14.110Z,95978.06
2023-04-15T06:37:17.049Z,95981.28
2023-04-15T06:39:21.291Z,95976.78
2023-04-15T06:41:24.094Z,95979.44
2023-04-15T06:43:26.934Z,95985.56
2023-04-15T06:45:29.741Z,95980.88
2023-04-15T06:47:32.691Z,95982.91
2023-04-15T06:49:35.577Z,95985.78
2023-04-15T06:51:38.437Z,95989.00
2023-04-15T06:53:42.502Z,95985.78
2023-04-15T06:55:46.617Z,95977.25
2023-04-15T06:57:49.382Z,95986.81
2023-04-15T06:59:54.572Z,95974.38
2023-04-15T07:01:57.602Z,95995.34
2023-04-15T07:04:00.597Z,95991.88
2023-04-15T07:06:06.476Z,95998.47
2023-04-15T07:08:09.359Z,95996.03
2023-04-15T07:10:13.063Z,95990.28
2023-04-15T07:12:17.725Z,95978.06
2023-04-15T07:14:20.832Z,95983.34
2023-04-15T07:16:23.639Z,95984.97
2023-04-15T07:18:26.481Z,95982.31
2023-04-15T07:20:29.274Z,95981.28
2023-04-15T07:22:32.094Z,95976.78
2023-04-15T07:24:35.621Z,95983.94
2023-04-15T07:26:38.485Z,95986.59
2023-04-15T07:28:42.685Z,95983.94
2023-04-15T07:30:45.785Z,95975.19
2023-04-15T07:32:48.566Z,95985.34
2023-04-15T07:34:51.723Z,95978.06
2023-04-15T07:36:54.653Z,95986.25
2023-04-15T07:38:57.736Z,95985.78
2023-04-15T07:41:00.490Z,95982.31
2023-04-15T07:45:09.099Z,95989.63
2023-04-15T07:47:11.876Z,95993.88
2023-04-15T07:49:15.694Z,95988.59
2023-04-15T07:51:19.199Z,95991.25
2023-04-15T07:53:21.903Z,95995.50
2023-04-15T07:55:26.140Z,95996.66
2023-04-15T07:57:29.423Z,95992.75
2023-04-15T07:59:33.452Z,95990.72
2023-04-15T08:01:37.768Z,95990.09
2023-04-15T08:03:41.170Z,95996.19
2023-04-15T08:05:44.605Z,95992.91
2023-04-15T08:07:47.369Z,95999.34
2023-04-15T08:09:50.132Z,95989.94
2023-04-15T08:11:52.943Z,95993.16
2023-04-15T08:13:56.030Z,95994.78
2023-04-15T08:16:21.051Z,95994.78
2023-04-15T08:18:25.227Z,95989.81
2023-04-15T08:20:28.015Z,95990.63
2023-04-15T08:22:30.828Z,95995.28
2023-04-15T08:24:33.679Z,96002.78
2023-04-15T08:26:36.890Z,95999.31
2023-04-15T08:28:41.001Z,96003.59
2023-04-15T08:30:43.728Z,96007.28
2023-04-15T08:32:47.584Z,96001.16
2023-04-15T08:34:51.945Z,96003.34
2023-04-15T08:36:54.884Z,96010.03
2023-04-15T08:38:57.682Z,96005.19
2023-04-15T08:41:04.770Z,96012.13
2023-04-15T08:43:10.632Z,96012.69
2023-04-15T08:45:13.977Z,96011.66
2023-04-15T08:47:22.461Z,96009.22
2023-04-15T08:49:28.504Z,96011.31
2023-04-15T08:51:33.044Z,96012.34
2023-04-15T08:53:36.021Z,96019.03
2023-04-15T08:55:44.601Z,96029.41
2023-04-15T08:57:47.592Z,96021.47
2023-04-15T08:59:52.242Z,96028.84
2023-04-15T09:01:56.605Z,96035.06
2023-04-15T09:04:00.770Z,96030.56
2023-04-15T09:06:05.766Z,96036.91
2023-04-15T09:08:09.931Z,96036.44
2023-04-15T09:10:13.398Z,96048.69
2023-04-15T09:12:17.247Z,96056.06
2023-04-15T09:14:20.020Z,96052.00
2023-04-15T09:16:23.059Z,96055.91
2023-04-15T09:18:30.677Z,96050.03
2023-04-15T09:20:40.235Z,96057.16
2023-04-15T09:22:44.548Z,96054.16
2023-04-15T09:24:48.815Z,96065.00
2023-04-15T09:26:55.230Z,96070.50
2023-04-15T09:29:05.378Z,96071.09
2023-04-15T09:31:08.114Z,96068.22
2023-04-15T09:33:10.967Z,96076.63
2023-04-15T09:35:14.366Z,96067.03
2023-04-15T09:37:31.719Z,96079.50
2023-04-15T09:39:52.645Z,96073.75
2023-04-15T09:42:08.785Z,96080.44
2023-04-15T09:44:23.883Z,96088.19
2023-04-15T09:46:42.261Z,96086.34
2023-04-15T09:48:45.397Z,96098.34
2023-04-15T09:50:49.887Z,96098.34
2023-04-15T09:52:52.662Z,96109.97
2023-04-15T09:54:59.322Z,96113.09
2023-04-15T09:57:07.443Z,96104.09
2023-04-15T09:59:10.410Z,96113.44
2023-04-15T10:01:13.530Z,96111.59
2023-04-15T10:03:19.091Z,96115.06
2023-04-15T10:05:23.373Z,96120.38
2023-04-15T10:07:26.997Z,96117.47
2023-04-15T10:09:31.689Z,96127.28
2023-04-15T10:11:36.802Z,96127.50
2023-04-15T10:13:40.302Z,96133.63
2023-04-15T10:15:46.108Z,96132.81
2023-04-15T10:17:52.049Z,96138.13
2023-04-15T10:19:55.702Z,96139.59
2023-04-15T10:21:59.344Z,96138.00
2023-04-15T10:24:04.796Z,96140.41
2023-04-15T10:26:09.341Z,96144.34
2023-04-15T10:28:14.785Z,96152.88
2023-04-15T10:30:17.824Z,96148.16
2023-04-15T10:32:22.488Z,96158.75
2023-04-15T10:34:25.901Z,96151.97
2023-04-15T10:36:28.822Z,96163.78
2023-04-15T10:38:40.380Z,96162.97
2023-04-15T10:40:43.129Z,96161.94
2023-04-15T10:42:46.252Z,96164.13
2023-04-15T10:44:52.912Z,96161.03
2023-04-15T10:46:59.491Z,96157.78
2023-04-15T10:49:09.235Z,96168.03
2023-04-15T10:51:15.478Z,96168.03
2023-04-15T10:53:29.419Z,96159.91
2023-04-15T10:55:34.281Z,96162.56
2023-04-15T10:57:39.864Z,96169.53
2023-04-15T11:00:04.423Z,96170.75
2023-04-15T11:02:08.784Z,96174.66
2023-04-15T11:04:12.478Z,96168.09
2023-04-15T11:06:15.408Z,96180.34
2023-04-15T11:08:18.437Z,96182.13
2023-04-15T11:10:57.543Z,96182.25
2023-04-15T11:13:01.560Z,96186.75
2023-04-15T11:15:28.795Z,96195.66
2023-04-15T11:17:31.968Z,96194.19
2023-04-15T11:19:39.099Z,96187.03
2023-04-15T11:21:42.126Z,96187.03
2023-04-15T11:23:46.958Z,96194.41
2023-04-15T11:25:49.818Z,96188.28
2023-04-15T11:27:54.219Z,96193.25
2023-04-15T11:29:57.127Z,96205.47
2023-04-15T11:32:09.884Z,96199.94
2023-04-15T11:34:12.594Z,96203.41
2023-04-15T11:36:15.446Z,96202.13
2023-04-15T11:38:18.253Z,96206.81
2023-04-15T11:40:24.746Z,96213.72
2023-04-15T11:42:36.219Z,96204.28
2023-04-15T11:44:45.869Z,96221.97
2023-04-15T11:46:48.626Z,96216.66
2023-04-15T11:48:52.764Z,96216.66
2023-04-15T11:50:56.953Z,96218.06
2023-04-15T11:53:02.279Z,96228.25
2023-04-15T11:55:05.425Z,96228.84
2023-04-15T11:57:08.550Z,96229.41
2023-04-15T11:59:11.427Z,96237.38
2023-04-15T12:01:14.346Z,96233.72
2023-04-15T12:03:24.266Z,96235.75
2023-04-15T12:05:28.567Z,96238.41
2023-04-15T12:07:32.950Z,96234.94
2023-04-15T12:09:39.765Z,96241.06
2023-04-15T12:11:45.141Z,96244.34
2023-04-15T12:13:50.404Z,96246.53
2023-04-15T12:15:53.228Z,96254.28
2023-04-15T12:17:56.667Z,96252.19
2023-04-15T12:19:59.562Z,96258.31
2023-04-15T12:22:05.227Z,96262.59
2023-04-15T12:24:09.858Z,96270.78
2023-04-15T12:26:12.773Z,96264.22
2023-04-15T12:28:15.653Z,96265.81
2023-04-15T12:30:18.398Z,96274.41
2023-04-15T12:32:21.557Z,96273.13
2023-04-15T12:34:30.030Z,96279.84
2023-04-15T12:36:36.296Z,96273.25
2023-04-15T12:38:40.718Z,96285.31
2023-04-15T12:40:43.602Z,96284.47
2023-04-15T12:42:46.366Z,96291.44
2023-04-15T12:44:49.253Z,96289.78
2023-04-15T12:46:52.908Z,96292.31
2023-04-15T12:48:55.851Z,96298.06
2023-04-15T12:50:58.676Z,96292.31
2023-04-15T12:53:01.443Z,96293.47
2023-04-15T12:55:06.585Z,96296.75
2023-04-15T12:57:09.434Z,96301.00
2023-04-15T12:59:12.762Z,96304.91
2023-04-15T13:01:15.496Z,96304.09
2023-04-15T13:03:18.294Z,96309.22
2023-04-15T13:05:21.156Z,96305.28
2023-04-15T13:07:24.286Z,96318.69
2023-04-15T13:09:27.280Z,96319.88
2023-04-15T13:11:33.582Z,96320.47
2023-04-15T13:13:36.399Z,96325.19
2023-04-15T13:15:39.242Z,96324.16
2023-04-15T13:17:42.014Z,96326.13
2023-04-15T13:19:44.886Z,96331.00
2023-04-15T13:21:48.200Z,96333.66
2023-04-15T13:23:51.154Z,96337.81
2023-04-15T13:25:53.689Z,96346.00
2023-04-15T13:27:58.585Z,96346.66
2023-04-15T13:30:01.526Z,96348.50
2023-04-15T13:32:04.582Z,96352.75
2023-04-15T13:34:07.502Z,96357.06
2023-04-15T13:36:10.543Z,96353.00
2023-04-15T13:38:13.297Z,96358.75
2023-04-15T13:40:16.236Z,96365.47
2023-04-15T13:42:18.981Z,96356.47
2023-04-15T13:44:23.158Z,96355.66
2023-04-15T13:46:26.435Z,96364.22
2023-04-15T13:48:29.943Z,96367.69
2023-04-15T13:50:32.775Z,96362.38
2023-04-15T13:52:35.546Z,96363.19
2023-04-15T13:54:38.315Z,96367.25
2023-04-15T13:56:41.260Z,96365.16
2023-04-15T13:58:44.093Z,96370.94
2023-04-15T14:00:48.176Z,96365.63
2023-04-15T14:02:51.182Z,96366.22
2023-04-15T14:04:54.146Z,96368.41
2023-04-15T14:06:57.475Z,96375.56
2023-04-15T14:09:00.576Z,96381.25
2023-04-15T14:11:03.419Z,96376.53
2023-04-15T14:13:06.209Z,96386.56
2023-04-15T14:15:10.093Z,96381.47
2023-04-15T14:17:14.270Z,96387.81
2023-04-15T14:19:17.037Z,96393.22
2023-04-15T14:21:19.811Z,96399.19
2023-04-15T14:23:22.974Z,96403.69
2023-04-15T14:25:33.385Z,96398.38
2023-04-15T14:27:36.889Z,96395.72
2023-04-15T14:29:39.752Z,96399.41
2023-04-15T14:31:44.547Z,96402.06
2023-04-15T14:34:08.844Z,96411.66
2023-04-15T14:36:11.794Z,96403.69
2023-04-15T14:38:14.543Z,96418.00
2023-04-15T14:40:17.427Z,96412.69
2023-04-15T14:42:20.452Z,96416.72
2023-04-15T14:44:23.993Z,96422.28
2023-04-15T14:46:27.049Z,96427.81
2023-04-15T14:48:30.454Z,96422.94
2023-04-15T14:50:34.735Z,96431.13
2023-04-15T14:52:39.429Z,96427.66
2023-04-15T14:54:42.340Z,96435.19
2023-04-15T14:56:45.278Z,96435.53
2023-04-15T14:58:48.271Z,96442.47
2023-04-15T15:00:51.081Z,96438.78
2023-04-15T15:02:54.716Z,96450.69
2023-04-15T15:04:58.902Z,96447.06
2023-04-15T15:07:03.133Z,96445.44
2023-04-15T15:09:06.659Z,96452.16
2023-04-15T15:11:09.705Z,96457.69
2023-04-15T15:13:13.045Z,96453.41
2023-04-15T15:15:28.553Z,96465.88
2023-04-15T15:17:31.965Z,96465.03
2023-04-15T15:19:34.929Z,96467.09
2023-04-15T15:21:37.700Z,96474.47
2023-04-15T15:23:41.899Z,96471.03
2023-04-15T15:25:45.113Z,96481.84
2023-04-15T15:27:48.098Z,96480.25
2023-04-15T15:29:51.869Z,96475.75
2023-04-15T15:31:54.663Z,96480.03
2023-04-15T15:33:57.774Z,96473.75
2023-04-15T15:36:00.734Z,96492.34
2023-04-15T15:38:03.560Z,96487.63
2023-04-15T15:40:09.309Z,96498.25
2023-04-15T15:42:12.064Z,96499.03
2023-04-15T15:44:14.860Z,96498.25
2023-04-15T15:46:17.778Z,96497.78
2023-04-15T15:48:20.967Z,96500.22
2023-04-15T15:50:24.277Z,96502.66
2023-04-15T15:52:27.058Z,96505.91
2023-04-15T15:54:29.991Z,96507.13
2023-04-15T15:56:35.100Z,96514.03
2023-04-15T15:58:37.921Z,96508.16
2023-04-15T16:00:40.819Z,96517.16
2023-04-15T16:04:52.373Z,96517.34
2023-04-15T16:06:55.207Z,96518.16
2023-04-15T16:08:58.065Z,96526.13
2023-04-15T16:11:01.148Z,96526.34
2023-04-15T16:13:05.331Z,96531.06
2023-04-15T16:15:09.273Z,96533.13
2023-04-15T16:17:12.043Z,96538.66
2023-04-15T16:19:15.262Z,96546.44
2023-04-15T16:21:19.511Z,96557.50
2023-04-15T16:23:23.775Z,96554.69
2023-04-15T16:25:26.566Z,96550.59
2023-04-15T16:27:29.829Z,96553.88
2023-04-15T16:29:34.360Z,96558.97
2023-04-15T16:31:39.754Z,96555.28
2023-04-15T16:33:42.618Z,96556.31
2023-04-15T16:35:45.397Z,96559.78
2023-04-15T16:37:48.120Z,96563.69
2023-04-15T16:39:51.100Z,96572.06
2023-04-15T16:41:54.832Z,96568.63
2023-04-15T16:43:58.645Z,96576.00
2023-04-15T16:46:02.985Z,96581.31
2023-04-15T16:48:06.251Z,96588.00
2023-04-15T16:50:10.146Z,96588.22
2023-04-15T16:52:12.921Z,96599.03
2023-04-15T16:54:15.638Z,96601.47
2023-04-15T16:56:18.377Z,96607.38
2023-04-15T16:58:21.160Z,96614.31
2023-04-15T17:00:24.106Z,96618.81
2023-04-15T17:02:28.272Z,96620.47
2023-04-15T17:04:31.501Z,96620.66
2023-04-15T17:06:34.534Z,96633.13
2023-04-15T17:08:37.290Z,96632.91
2023-04-15T17:10:40.268Z,96632.09
2023-04-15T17:12:43.281Z,96637.81
2023-04-15T17:14:46.108Z,96639.03
2023-04-15T17:16:48.812Z,96635.56
2023-04-15T17:18:53.134Z,96632.53
2023-04-15T17:20:56.490Z,96638.84
2023-04-15T17:23:00.364Z,96638.03
2023-04-15T17:25:04.541Z,96653.16
2023-04-15T17:27:08.620Z,96651.50
2023-04-15T17:29:11.763Z,96648.25
2023-04-15T17:31:14.559Z,96643.34
2023-04-15T17:33:55.889Z,96648.28
2023-04-15T17:35:41.674Z,96657.03
2023-04-15T17:37:44.556Z,96659.91
2023-04-15T17:39:47.268Z,96671.13
2023-04-15T17:41:50.012Z,96676.66
2023-04-15T17:43:52.741Z,96682.41
2023-04-15T17:45:56.566Z,96684.66
2023-04-15T17:48:03.436Z,96696.09
2023-04-15T17:50:07.592Z,96703.63
2023-04-15T17:52:11.856Z,96709.97
2023-04-15T17:54:14.775Z,96704.66
2023-04-15T17:56:17.623Z,96711.81
2023-04-15T17:58:20.499Z,96709.38
2023-04-15T18:00:23.322Z,96713.28
2023-04-15T18:02:26.365Z,96715.50
2023-04-15T18:04:29.598Z,96719.81
2023-04-15T18:06:32.462Z,96722.69
2023-04-15T18:08:37.122Z,96721.88
2023-04-15T18:10:39.859Z,96729.66
2023-04-15T18:12:42.758Z,96734.53
2023-04-15T18:14:45.726Z,96733.72
2023-04-15T18:16:49.198Z,96735.78
2023-04-15T18:18:52.363Z,96736.59
2023-04-15T18:20:55.198Z,96748.84
2023-04-15T18:22:58.052Z,96756.78
2023-04-15T18:25:04.317Z,96748.03
2023-04-15T18:27:07.307Z,96761.06
2023-04-15T18:29:11.112Z,96762.69
2023-04-15T18:31:13.981Z,96769.66
2023-04-15T18:33:16.850Z,96771.88
2023-04-15T18:35:20.587Z,96774.53
2023-04-15T18:37:24.384Z,96775.97
2023-04-15T18:39:27.751Z,96777.19
2023-04-15T18:41:31.934Z,96775.78
2023-04-15T18:43:35.170Z,96792.72
2023-04-15T18:45:38.136Z,96792.50
2023-04-15T18:47:42.150Z,96788.00
2023-04-15T18:49:45.194Z,96801.88
2023-04-15T18:51:48.257Z,96806.38
2023-04-15T18:53:51.460Z,96812.28
2023-04-15T18:55:54.333Z,96814.72
2023-04-15T18:58:08.409Z,96818.19
2023-04-15T19:00:13.838Z,96816.56
2023-04-15T19:02:16.720Z,96824.31
2023-04-15T19:04:20.049Z,96831.44
2023-04-15T19:06:22.879Z,96833.09
2023-04-15T19:08:25.712Z,96835.34
2023-04-15T19:10:28.877Z,96834.72
2023-04-15T19:12:31.654Z,96833.91
2023-04-15T19:14:36.064Z,96839.00
2023-04-15T19:16:39.003Z,96848.81
2023-04-15T19:18:42.058Z,96847.19
2023-04-15T19:20:44.996Z,96851.47
2023-04-15T19:22:47.627Z,96852.06
2023-04-15T19:24:52.145Z,96863.50
2023-04-15T19:26:55.149Z,96867.56
2023-04-15T19:28:58.923Z,96861.25
2023-04-15T19:31:03.289Z,96862.25
2023-04-15T19:33:06.329Z,96863.28
2023-04-15T19:35:11.550Z,96862.47
2023-04-15T19:37:14.701Z,96873.91
2023-04-15T19:39:19.715Z,96867.16
2023-04-15T19:41:22.494Z,96878.59
2023-04-15T19:43:25.907Z,96880.44
2023-04-15T19:45:28.763Z,96882.88
2023-04-15T19:47:33.548Z,96887.16
2023-04-15T19:49:36.581Z,96889.59
2023-04-15T19:51:39.425Z,96887.16
2023-04-15T19:53:42.220Z,96890.41
2023-04-15T19:55:45.671Z,96894.69
2023-04-15T19:57:48.535Z,96894.09
2023-04-15T19:59:51.420Z,96900.44
2023-04-15T20:01:54.291Z,96895.94
2023-04-15T20:03:58.867Z,96906.94
2023-04-15T20:06:02.277Z,96900.22
2023-04-15T20:08:05.172Z,96903.50
2023-04-15T20:10:12.606Z,96916.97
2023-04-15T20:12:50.838Z,96917.34
2023-04-15T20:14:38.644Z,96908.56
2023-04-15T20:16:41.428Z,96911.66
2023-04-15T20:18:44.255Z,96913.50
2023-04-15T20:20:48.590Z,96913.50
2023-04-15T20:22:52.881Z,96912.84
2023-04-15T20:24:55.883Z,96905.91
2023-04-15T20:26:58.611Z,96908.56
2023-04-15T20:29:01.540Z,96903.91
2023-04-15T20:31:04.467Z,96899.22
2023-04-15T20:33:08.114Z,96904.50
2023-04-15T20:35:11.300Z,96905.53
2023-04-15T20:37:15.498Z,96900.41
2023-04-15T20:39:18.234Z,96906.56
2023-04-15T20:41:23.191Z,96908.38
2023-04-15T20:43:26.258Z,96904.72
2023-04-15T20:45:28.967Z,96908.19
2023-04-15T20:47:31.862Z,96905.72
2023-04-15T20:49:35.829Z,96902.44
2023-04-15T20:51:38.561Z,96902.66
2023-04-15T20:53:42.896Z,96916.13
2023-04-15T20:55:45.820Z,96923.06
2023-04-15T20:57:49.428Z,96915.91
2023-04-15T20:59:52.360Z,96923.06
2023-04-15T21:01:56.822Z,96919.38
2023-04-15T21:04:00.100Z,96922.25
2023-04-15T21:06:02.968Z,96923.25
2023-04-15T21:08:05.904Z,96932.84
2023-04-15T21:10:10.835Z,96934.47
2023-04-15T21:12:13.891Z,96925.50
2023-04-15T21:14:17.151Z,96927.94
2023-04-15T21:16:19.904Z,96929.56
2023-04-15T21:18:23.497Z,96936.72
2023-04-15T21:20:26.304Z,96934.88
2023-04-15T21:22:29.079Z,96939.38
2023-04-15T21:24:32.004Z,96939.38
2023-04-15T21:26:36.790Z,96939.38
2023-04-15T21:28:39.551Z,96942.47
2023-04-15T21:30:42.319Z,96945.94
2023-04-15T21:32:45.031Z,96948.78
2023-04-15T21:34:47.786Z,96953.66
2023-04-15T21:36:51.813Z,96960.19
2023-04-15T21:38:55.135Z,96967.13
2023-04-15T21:40:58.007Z,96956.50
2023-04-15T21:43:02.216Z,96961.00
2023-04-15T21:45:05.360Z,96962.03
2023-04-15T21:47:08.092Z,96959.38
2023-04-15T21:49:11.127Z,96951.63
2023-04-15T21:51:16.365Z,96951.22
2023-04-15T21:53:19.153Z,96953.44
2023-04-15T21:55:22.169Z,96951.63
2023-04-15T21:57:24.845Z,96951.44
2023-04-15T21:59:28.998Z,96957.56
2023-04-15T22:01:32.016Z,96959.59
2023-04-15T22:03:36.350Z,96962.25
2023-04-15T22:05:39.233Z,96952.03
2023-04-15T22:07:42.143Z,96966.72
2023-04-15T22:09:44.900Z,96974.50
2023-04-15T22:11:47.649Z,96970.00
2023-04-15T22:13:50.615Z,96969.56
2023-04-15T22:15:54.956Z,96966.09
2023-04-15T22:17:57.749Z,96969.56
2023-04-15T22:20:00.551Z,96972.84
2023-04-15T22:22:03.373Z,96975.31
2023-04-15T22:24:33.215Z,96975.09
2023-04-15T22:26:30.355Z,96974.28
2023-04-15T22:28:33.296Z,96974.91
2023-04-15T22:30:39.091Z,96990.81
2023-04-15T22:32:43.301Z,96978.56
2023-04-15T22:34:46.042Z,96984.06
2023-04-15T22:36:49.321Z,96976.13
2023-04-15T22:38:52.423Z,96985.72
2023-04-15T22:40:55.176Z,96991.00
2023-04-15T22:42:57.950Z,96990.56
2023-04-15T22:45:00.736Z,96990.56
2023-04-15T22:47:03.527Z,97002.19
2023-04-15T22:49:09.403Z,97000.78
2023-04-15T22:51:12.193Z,97004.25
2023-04-15T22:53:17.413Z,97002.63
2023-04-15T22:55:20.661Z,97004.84
2023-04-15T22:57:23.481Z,97006.25
2023-04-15T22:59:26.421Z,96999.72
2023-04-15T23:01:29.310Z,97001.97
2023-04-15T23:03:32.426Z,97009.91
2023-04-15T23:05:56.383Z,97004.81
2023-04-15T23:07:59.162Z,97012.13
2023-04-15T23:10:02.168Z,97012.53
2023-04-15T23:12:05.750Z,97013.16
2023-04-15T23:14:08.526Z,97015.38
2023-04-15T23:16:11.805Z,97019.88
2023-04-15T23:18:14.609Z,97017.22
2023-04-15T23:20:17.448Z,97013.97
2023-04-15T23:22:21.631Z,97011.31
2023-04-15T23:24:24.462Z,97022.13
2023-04-15T23:26:27.294Z,97022.13
2023-04-15T23:28:30.240Z,97024.13
2023-04-15T23:30:32.993Z,97029.81
2023-04-15T23:32:35.973Z,97025.34
2023-04-15T23:34:39.014Z,97029.00
2023-04-15T23:36:41.895Z,97022.88
2023-04-15T23:38:46.085Z,97031.03
2023-04-15T23:40:48.911Z,97032.66
2023-04-15T23:42:51.733Z,97040.00
2023-04-15T23:44:54.434Z,97040.00
2023-04-15T23:46:57.236Z,97046.53
2023-04-15T23:49:00.130Z,97038.38
2023-04-15T23:51:03.146Z,97032.88
2023-04-15T23:53:05.938Z,97042.47
2023-04-15T23:55:11.000Z,97043.28
2023-04-15T23:57:13.740Z,97044.50
2023-04-15T23:59:16.587Z,97046.31
